sensor_id;sensor_type;location;lat;lon;timestamp;P1;durP1;ratioP1;P2;durP2;ratioP2
3131;SDS011;62090;52.330;9.104;2024-03-23T00:51:27;31.83;;;12.70;;
3131;SDS011;62090;52.330;9.104;2024-03-23T00:56:21;44.43;;;15.00;;
3131;SDS011;62090;52.330;9.104;2024-03-23T00:58:47;33.97;;;13.57;;
3131;SDS011;62090;52.330;9.104;2024-03-23T01:01:13;35.57;;;13.37;;
3131;SDS011;62090;52.330;9.104;2024-03-23T01:03:39;42.00;;;14.80;;
3131;SDS011;62090;52.330;9.104;2024-03-23T01:06:06;38.43;;;14.83;;
3131;SDS011;62090;52.330;9.104;2024-03-23T01:08:34;38.63;;;14.57;;
3131;SDS011;62090;52.330;9.104;2024-03-23T01:11:01;29.30;;;14.40;;
3131;SDS011;62090;52.330;9.104;2024-03-23T01:13:28;40.97;;;15.50;;
3131;SDS011;62090;52.330;9.104;2024-03-23T01:15:55;37.93;;;15.63;;
3131;SDS011;62090;52.330;9.104;2024-03-23T01:18:22;36.03;;;15.23;;
3131;SDS011;62090;52.330;9.104;2024-03-23T01:20:49;38.00;;;16.37;;
3131;SDS011;62090;52.330;9.104;2024-03-23T01:23:15;42.17;;;16.60;;
3131;SDS011;62090;52.330;9.104;2024-03-23T01:25:44;41.83;;;15.20;;
3131;SDS011;62090;52.330;9.104;2024-03-23T01:28:17;35.80;;;15.77;;
3131;SDS011;62090;52.330;9.104;2024-03-23T01:30:44;37.60;;;15.40;;
3131;SDS011;62090;52.330;9.104;2024-03-23T01:33:10;31.10;;;14.47;;
3131;SDS011;62090;52.330;9.104;2024-03-23T01:35:36;32.00;;;14.90;;
3131;SDS011;62090;52.330;9.104;2024-03-23T01:38:03;36.07;;;14.87;;
3131;SDS011;62090;52.330;9.104;2024-03-23T01:40:29;30.30;;;14.77;;
3131;SDS011;62090;52.330;9.104;2024-03-23T01:43:00;33.60;;;14.60;;
3131;SDS011;62090;52.330;9.104;2024-03-23T01:45:29;35.70;;;14.60;;
3131;SDS011;62090;52.330;9.104;2024-03-23T01:47:56;49.10;;;15.30;;
3131;SDS011;62090;52.330;9.104;2024-03-23T01:50:22;42.87;;;15.83;;
3131;SDS011;62090;52.330;9.104;2024-03-23T01:52:49;44.33;;;15.40;;
3131;SDS011;62090;52.330;9.104;2024-03-23T01:55:16;48.90;;;14.30;;
3131;SDS011;62090;52.330;9.104;2024-03-23T01:57:43;43.00;;;16.50;;
3131;SDS011;62090;52.330;9.104;2024-03-23T02:00:13;38.37;;;14.70;;
3131;SDS011;62090;52.330;9.104;2024-03-23T02:02:43;39.23;;;14.83;;
3131;SDS011;62090;52.330;9.104;2024-03-23T02:05:10;38.10;;;15.70;;
3131;SDS011;62090;52.330;9.104;2024-03-23T02:07:37;44.47;;;15.10;;
3131;SDS011;62090;52.330;9.104;2024-03-23T02:10:04;36.63;;;14.70;;
3131;SDS011;62090;52.330;9.104;2024-03-23T02:12:31;50.03;;;15.10;;
3131;SDS011;62090;52.330;9.104;2024-03-23T02:14:58;36.50;;;13.70;;
3131;SDS011;62090;52.330;9.104;2024-03-23T02:17:27;33.03;;;12.23;;
3131;SDS011;62090;52.330;9.104;2024-03-23T02:19:54;43.40;;;13.17;;
3131;SDS011;62090;52.330;9.104;2024-03-23T02:22:20;38.47;;;13.20;;
3131;SDS011;62090;52.330;9.104;2024-03-23T02:24:49;36.17;;;14.77;;
3131;SDS011;62090;52.330;9.104;2024-03-23T02:27:16;35.83;;;13.10;;
3131;SDS011;62090;52.330;9.104;2024-03-23T02:29:42;42.67;;;13.47;;
3131;SDS011;62090;52.330;9.104;2024-03-23T02:32:08;30.13;;;12.90;;
3131;SDS011;62090;52.330;9.104;2024-03-23T02:34:34;34.03;;;12.30;;
3131;SDS011;62090;52.330;9.104;2024-03-23T02:37:01;48.07;;;12.67;;
3131;SDS011;62090;52.330;9.104;2024-03-23T02:39:27;39.57;;;12.70;;
3131;SDS011;62090;52.330;9.104;2024-03-23T02:41:56;39.13;;;12.50;;
3131;SDS011;62090;52.330;9.104;2024-03-23T02:44:23;35.83;;;11.50;;
3131;SDS011;62090;52.330;9.104;2024-03-23T02:46:49;32.53;;;12.17;;
3131;SDS011;62090;52.330;9.104;2024-03-23T02:49:15;28.40;;;10.97;;
3131;SDS011;62090;52.330;9.104;2024-03-23T02:51:41;34.33;;;10.30;;
3131;SDS011;62090;52.330;9.104;2024-03-23T02:54:08;37.33;;;10.63;;
3131;SDS011;62090;52.330;9.104;2024-03-23T02:56:34;32.07;;;11.13;;
3131;SDS011;62090;52.330;9.104;2024-03-23T02:59:03;23.27;;;9.73;;
3131;SDS011;62090;52.330;9.104;2024-03-23T03:01:29;40.83;;;11.60;;
3131;SDS011;62090;52.330;9.104;2024-03-23T03:03:55;35.50;;;11.83;;
3131;SDS011;62090;52.330;9.104;2024-03-23T03:06:25;34.90;;;10.90;;
3131;SDS011;62090;52.330;9.104;2024-03-23T03:08:52;26.07;;;9.60;;
3131;SDS011;62090;52.330;9.104;2024-03-23T03:11:18;32.33;;;9.47;;
3131;SDS011;62090;52.330;9.104;2024-03-23T03:13:44;36.00;;;10.10;;
3131;SDS011;62090;52.330;9.104;2024-03-23T03:16:13;34.40;;;8.40;;
3131;SDS011;62090;52.330;9.104;2024-03-23T03:18:40;31.50;;;9.43;;
3131;SDS011;62090;52.330;9.104;2024-03-23T03:21:06;27.70;;;8.70;;
3131;SDS011;62090;52.330;9.104;2024-03-23T03:23:33;29.97;;;8.70;;
3131;SDS011;62090;52.330;9.104;2024-03-23T03:25:59;26.70;;;8.87;;
3131;SDS011;62090;52.330;9.104;2024-03-23T03:28:25;42.60;;;9.67;;
3131;SDS011;62090;52.330;9.104;2024-03-23T03:30:52;34.37;;;9.67;;
3131;SDS011;62090;52.330;9.104;2024-03-23T03:33:20;31.33;;;8.90;;
3131;SDS011;62090;52.330;9.104;2024-03-23T03:35:47;30.33;;;9.70;;
3131;SDS011;62090;52.330;9.104;2024-03-23T03:38:13;26.67;;;9.90;;
3131;SDS011;62090;52.330;9.104;2024-03-23T03:40:39;39.03;;;10.50;;
3131;SDS011;62090;52.330;9.104;2024-03-23T03:43:07;33.67;;;11.23;;
3131;SDS011;62090;52.330;9.104;2024-03-23T03:45:33;36.80;;;10.00;;
3131;SDS011;62090;52.330;9.104;2024-03-23T03:48:00;30.97;;;10.47;;
3131;SDS011;62090;52.330;9.104;2024-03-23T03:50:29;33.27;;;8.87;;
3131;SDS011;62090;52.330;9.104;2024-03-23T03:52:55;28.60;;;9.17;;
3131;SDS011;62090;52.330;9.104;2024-03-23T03:55:21;31.07;;;8.30;;
3131;SDS011;62090;52.330;9.104;2024-03-23T03:57:47;32.27;;;9.80;;
3131;SDS011;62090;52.330;9.104;2024-03-23T04:00:14;32.97;;;9.20;;
3131;SDS011;62090;52.330;9.104;2024-03-23T04:02:40;26.30;;;7.57;;
3131;SDS011;62090;52.330;9.104;2024-03-23T04:05:07;27.53;;;7.27;;
3131;SDS011;62090;52.330;9.104;2024-03-23T04:07:36;35.77;;;7.37;;
3131;SDS011;62090;52.330;9.104;2024-03-23T04:10:02;28.67;;;7.40;;
3131;SDS011;62090;52.330;9.104;2024-03-23T04:12:29;30.50;;;7.10;;
3131;SDS011;62090;52.330;9.104;2024-03-23T04:14:55;27.30;;;8.30;;
3131;SDS011;62090;52.330;9.104;2024-03-23T04:17:22;29.50;;;8.07;;
3131;SDS011;62090;52.330;9.104;2024-03-23T04:19:48;27.77;;;8.63;;
3131;SDS011;62090;52.330;9.104;2024-03-23T04:22:14;27.87;;;7.23;;
3131;SDS011;62090;52.330;9.104;2024-03-23T04:24:43;27.40;;;7.33;;
3131;SDS011;62090;52.330;9.104;2024-03-23T04:27:09;28.03;;;8.53;;
3131;SDS011;62090;52.330;9.104;2024-03-23T04:29:35;32.17;;;8.57;;
3131;SDS011;62090;52.330;9.104;2024-03-23T04:32:02;32.20;;;7.67;;
3131;SDS011;62090;52.330;9.104;2024-03-23T04:34:28;23.33;;;6.57;;
3131;SDS011;62090;52.330;9.104;2024-03-23T04:36:55;23.90;;;7.50;;
3131;SDS011;62090;52.330;9.104;2024-03-23T04:39:21;23.13;;;7.07;;
3131;SDS011;62090;52.330;9.104;2024-03-23T04:41:50;27.47;;;7.77;;
3131;SDS011;62090;52.330;9.104;2024-03-23T04:44:16;32.23;;;7.13;;
3131;SDS011;62090;52.330;9.104;2024-03-23T04:46:42;24.63;;;7.20;;
3131;SDS011;62090;52.330;9.104;2024-03-23T04:49:08;27.03;;;7.50;;
3131;SDS011;62090;52.330;9.104;2024-03-23T04:51:35;23.57;;;7.13;;
3131;SDS011;62090;52.330;9.104;2024-03-23T04:54:02;24.57;;;6.90;;
3131;SDS011;62090;52.330;9.104;2024-03-23T04:56:31;31.97;;;7.73;;
3131;SDS011;62090;52.330;9.104;2024-03-23T04:58:59;23.87;;;7.50;;
3131;SDS011;62090;52.330;9.104;2024-03-23T05:01:26;22.17;;;7.97;;
3131;SDS011;62090;52.330;9.104;2024-03-23T05:03:52;37.83;;;8.33;;
3131;SDS011;62090;52.330;9.104;2024-03-23T05:06:19;22.90;;;7.73;;
3131;SDS011;62090;52.330;9.104;2024-03-23T05:08:45;27.73;;;7.90;;
3131;SDS011;62090;52.330;9.104;2024-03-23T05:11:11;30.90;;;8.20;;
3131;SDS011;62090;52.330;9.104;2024-03-23T05:13:38;23.63;;;7.90;;
3131;SDS011;62090;52.330;9.104;2024-03-23T05:16:06;27.50;;;9.00;;
3131;SDS011;62090;52.330;9.104;2024-03-23T05:18:33;22.93;;;8.33;;
3131;SDS011;62090;52.330;9.104;2024-03-23T05:20:59;29.90;;;8.77;;
3131;SDS011;62090;52.330;9.104;2024-03-23T05:23:26;30.87;;;8.97;;
3131;SDS011;62090;52.330;9.104;2024-03-23T05:25:54;26.63;;;8.67;;
3131;SDS011;62090;52.330;9.104;2024-03-23T05:28:21;24.17;;;8.80;;
3131;SDS011;62090;52.330;9.104;2024-03-23T05:30:50;33.57;;;8.80;;
3131;SDS011;62090;52.330;9.104;2024-03-23T05:33:19;33.73;;;9.27;;
3131;SDS011;62090;52.330;9.104;2024-03-23T05:35:46;21.97;;;8.17;;
3131;SDS011;62090;52.330;9.104;2024-03-23T05:38:12;31.07;;;9.37;;
3131;SDS011;62090;52.330;9.104;2024-03-23T05:40:38;34.27;;;9.87;;
3131;SDS011;62090;52.330;9.104;2024-03-23T05:43:05;34.03;;;9.67;;
3131;SDS011;62090;52.330;9.104;2024-03-23T05:45:31;29.87;;;10.87;;
3131;SDS011;62090;52.330;9.104;2024-03-23T05:47:57;30.53;;;10.07;;
3131;SDS011;62090;52.330;9.104;2024-03-23T05:50:26;42.90;;;13.73;;
3131;SDS011;62090;52.330;9.104;2024-03-23T05:52:52;51.13;;;12.50;;
3131;SDS011;62090;52.330;9.104;2024-03-23T05:55:19;54.10;;;14.33;;
3131;SDS011;62090;52.330;9.104;2024-03-23T05:57:45;34.97;;;12.43;;
3131;SDS011;62090;52.330;9.104;2024-03-23T06:00:11;58.33;;;15.17;;
3131;SDS011;62090;52.330;9.104;2024-03-23T06:02:41;51.97;;;13.90;;
3131;SDS011;62090;52.330;9.104;2024-03-23T06:05:08;38.13;;;12.80;;
3131;SDS011;62090;52.330;9.104;2024-03-23T06:07:37;48.33;;;13.93;;
3131;SDS011;62090;52.330;9.104;2024-03-23T06:10:03;52.80;;;13.60;;
3131;SDS011;62090;52.330;9.104;2024-03-23T06:12:31;38.80;;;13.67;;
3131;SDS011;62090;52.330;9.104;2024-03-23T06:14:57;48.00;;;13.20;;
3131;SDS011;62090;52.330;9.104;2024-03-23T06:17:24;46.50;;;14.67;;
3131;SDS011;62090;52.330;9.104;2024-03-23T06:19:50;62.50;;;14.57;;
3131;SDS011;62090;52.330;9.104;2024-03-23T06:22:16;54.53;;;14.97;;
3131;SDS011;62090;52.330;9.104;2024-03-23T06:24:45;60.10;;;13.27;;
3131;SDS011;62090;52.330;9.104;2024-03-23T06:27:11;68.03;;;15.63;;
3131;SDS011;62090;52.330;9.104;2024-03-23T06:29:38;61.10;;;14.20;;
3131;SDS011;62090;52.330;9.104;2024-03-23T06:32:04;62.23;;;14.60;;
3131;SDS011;62090;52.330;9.104;2024-03-23T06:34:30;59.27;;;13.73;;
3131;SDS011;62090;52.330;9.104;2024-03-23T06:36:56;61.87;;;14.50;;
3131;SDS011;62090;52.330;9.104;2024-03-23T06:39:23;53.43;;;14.40;;
3131;SDS011;62090;52.330;9.104;2024-03-23T06:41:54;73.00;;;14.00;;
3131;SDS011;62090;52.330;9.104;2024-03-23T06:44:20;52.40;;;13.90;;
3131;SDS011;62090;52.330;9.104;2024-03-23T06:46:47;48.17;;;12.67;;
3131;SDS011;62090;52.330;9.104;2024-03-23T06:49:13;61.00;;;12.87;;
3131;SDS011;62090;52.330;9.104;2024-03-23T06:51:39;57.33;;;13.10;;
3131;SDS011;62090;52.330;9.104;2024-03-23T06:54:06;60.30;;;13.90;;
3131;SDS011;62090;52.330;9.104;2024-03-23T06:56:32;53.30;;;12.40;;
3131;SDS011;62090;52.330;9.104;2024-03-23T06:59:01;41.43;;;12.07;;
3131;SDS011;62090;52.330;9.104;2024-03-23T07:01:27;38.00;;;11.23;;
3131;SDS011;62090;52.330;9.104;2024-03-23T07:03:54;60.73;;;13.77;;
3131;SDS011;62090;52.330;9.104;2024-03-23T07:06:20;55.60;;;11.50;;
3131;SDS011;62090;52.330;9.104;2024-03-23T07:08:47;44.17;;;10.67;;
3131;SDS011;62090;52.330;9.104;2024-03-23T07:11:18;57.43;;;12.40;;
3131;SDS011;62090;52.330;9.104;2024-03-23T07:13:44;43.50;;;12.70;;
3131;SDS011;62090;52.330;9.104;2024-03-23T07:16:13;45.17;;;10.70;;
3131;SDS011;62090;52.330;9.104;2024-03-23T07:18:39;43.73;;;10.57;;
3131;SDS011;62090;52.330;9.104;2024-03-23T07:21:06;52.27;;;12.90;;
3131;SDS011;62090;52.330;9.104;2024-03-23T07:23:32;47.27;;;11.10;;
3131;SDS011;62090;52.330;9.104;2024-03-23T07:25:59;40.30;;;10.77;;
3131;SDS011;62090;52.330;9.104;2024-03-23T07:28:26;40.70;;;9.40;;
3131;SDS011;62090;52.330;9.104;2024-03-23T07:31:02;55.10;;;11.10;;
3131;SDS011;62090;52.330;9.104;2024-03-23T07:33:32;47.13;;;10.30;;
3131;SDS011;62090;52.330;9.104;2024-03-23T07:35:59;27.97;;;9.03;;
3131;SDS011;62090;52.330;9.104;2024-03-23T07:38:26;47.43;;;10.70;;
3131;SDS011;62090;52.330;9.104;2024-03-23T07:41:02;37.20;;;10.60;;
3131;SDS011;62090;52.330;9.104;2024-03-23T07:43:28;43.53;;;9.77;;
3131;SDS011;62090;52.330;9.104;2024-03-23T07:45:55;49.97;;;12.43;;
3131;SDS011;62090;52.330;9.104;2024-03-23T07:48:21;47.67;;;11.63;;
3131;SDS011;62090;52.330;9.104;2024-03-23T07:50:58;44.10;;;11.40;;
3131;SDS011;62090;52.330;9.104;2024-03-23T07:53:25;41.73;;;11.33;;
3131;SDS011;62090;52.330;9.104;2024-03-23T07:55:54;43.70;;;11.90;;
3131;SDS011;62090;52.330;9.104;2024-03-23T07:58:21;54.87;;;13.57;;
3131;SDS011;62090;52.330;9.104;2024-03-23T08:00:48;54.37;;;12.00;;
3131;SDS011;62090;52.330;9.104;2024-03-23T08:03:14;60.03;;;11.13;;
3131;SDS011;62090;52.330;9.104;2024-03-23T08:05:40;58.93;;;13.63;;
3131;SDS011;62090;52.330;9.104;2024-03-23T08:08:09;61.97;;;11.73;;
3131;SDS011;62090;52.330;9.104;2024-03-23T08:10:36;43.00;;;11.30;;
3131;SDS011;62090;52.330;9.104;2024-03-23T08:13:02;54.17;;;10.93;;
3131;SDS011;62090;52.330;9.104;2024-03-23T08:15:29;50.33;;;10.43;;
3131;SDS011;62090;52.330;9.104;2024-03-23T08:17:56;52.93;;;13.13;;
3131;SDS011;62090;52.330;9.104;2024-03-23T08:20:22;42.23;;;11.03;;
3131;SDS011;62090;52.330;9.104;2024-03-23T08:22:49;50.30;;;10.20;;
3131;SDS011;62090;52.330;9.104;2024-03-23T08:25:18;50.37;;;9.00;;
3131;SDS011;62090;52.330;9.104;2024-03-23T08:27:44;36.47;;;9.60;;
3131;SDS011;62090;52.330;9.104;2024-03-23T08:30:11;34.47;;;9.90;;
3131;SDS011;62090;52.330;9.104;2024-03-23T08:32:37;51.37;;;9.07;;
3131;SDS011;62090;52.330;9.104;2024-03-23T08:35:04;39.70;;;8.43;;
3131;SDS011;62090;52.330;9.104;2024-03-23T08:37:31;27.20;;;8.57;;
3131;SDS011;62090;52.330;9.104;2024-03-23T08:39:57;32.57;;;9.40;;
3131;SDS011;62090;52.330;9.104;2024-03-23T08:42:26;32.53;;;8.20;;
3131;SDS011;62090;52.330;9.104;2024-03-23T08:44:52;27.77;;;8.00;;
3131;SDS011;62090;52.330;9.104;2024-03-23T08:47:18;22.97;;;6.53;;
3131;SDS011;62090;52.330;9.104;2024-03-23T08:49:45;42.03;;;8.17;;
3131;SDS011;62090;52.330;9.104;2024-03-23T08:52:11;36.20;;;7.73;;
3131;SDS011;62090;52.330;9.104;2024-03-23T08:54:37;35.27;;;6.83;;
3131;SDS011;62090;52.330;9.104;2024-03-23T08:57:04;24.73;;;6.00;;
3131;SDS011;62090;52.330;9.104;2024-03-23T08:59:33;25.60;;;6.30;;
3131;SDS011;62090;52.330;9.104;2024-03-23T09:01:59;29.73;;;6.43;;
3131;SDS011;62090;52.330;9.104;2024-03-23T09:04:25;28.00;;;5.83;;
3131;SDS011;62090;52.330;9.104;2024-03-23T09:06:51;27.27;;;6.50;;
3131;SDS011;62090;52.330;9.104;2024-03-23T09:09:18;32.97;;;6.13;;
3131;SDS011;62090;52.330;9.104;2024-03-23T09:11:44;21.10;;;5.50;;
3131;SDS011;62090;52.330;9.104;2024-03-23T09:14:10;19.23;;;4.83;;
3131;SDS011;62090;52.330;9.104;2024-03-23T09:16:39;28.77;;;5.43;;
3131;SDS011;62090;52.330;9.104;2024-03-23T09:19:06;21.17;;;5.83;;
3131;SDS011;62090;52.330;9.104;2024-03-23T09:21:32;19.37;;;4.57;;
3131;SDS011;62090;52.330;9.104;2024-03-23T09:23:58;28.70;;;5.17;;
3131;SDS011;62090;52.330;9.104;2024-03-23T09:26:24;17.33;;;4.17;;
3131;SDS011;62090;52.330;9.104;2024-03-23T09:28:50;15.90;;;4.00;;
3131;SDS011;62090;52.330;9.104;2024-03-23T09:31:17;27.93;;;4.80;;
3131;SDS011;62090;52.330;9.104;2024-03-23T09:33:46;26.20;;;4.50;;
3131;SDS011;62090;52.330;9.104;2024-03-23T09:36:12;25.63;;;5.60;;
3131;SDS011;62090;52.330;9.104;2024-03-23T09:38:38;16.13;;;4.40;;
3131;SDS011;62090;52.330;9.104;2024-03-23T09:41:07;19.40;;;5.13;;
3131;SDS011;62090;52.330;9.104;2024-03-23T09:43:34;20.83;;;5.17;;
3131;SDS011;62090;52.330;9.104;2024-03-23T09:46:01;19.93;;;4.40;;
3131;SDS011;62090;52.330;9.104;2024-03-23T09:48:28;31.23;;;6.63;;
3131;SDS011;62090;52.330;9.104;2024-03-23T09:50:58;13.20;;;3.30;;
3131;SDS011;62090;52.330;9.104;2024-03-23T09:53:24;19.70;;;4.67;;
3131;SDS011;62090;52.330;9.104;2024-03-23T09:55:51;22.13;;;4.67;;
3131;SDS011;62090;52.330;9.104;2024-03-23T09:58:17;25.33;;;3.83;;
3131;SDS011;62090;52.330;9.104;2024-03-23T10:00:44;22.57;;;4.10;;
3131;SDS011;62090;52.330;9.104;2024-03-23T10:03:11;15.60;;;3.90;;
3131;SDS011;62090;52.330;9.104;2024-03-23T10:05:37;16.83;;;4.97;;
3131;SDS011;62090;52.330;9.104;2024-03-23T10:08:17;16.27;;;3.93;;
3131;SDS011;62090;52.330;9.104;2024-03-23T10:10:44;19.50;;;5.20;;
3131;SDS011;62090;52.330;9.104;2024-03-23T10:13:14;24.60;;;5.00;;
3131;SDS011;62090;52.330;9.104;2024-03-23T10:15:51;14.37;;;4.33;;
3131;SDS011;62090;52.330;9.104;2024-03-23T10:18:21;14.93;;;5.57;;
3131;SDS011;62090;52.330;9.104;2024-03-23T10:20:50;12.33;;;3.57;;
3131;SDS011;62090;52.330;9.104;2024-03-23T10:23:19;7.60;;;3.30;;
3131;SDS011;62090;52.330;9.104;2024-03-23T10:25:46;11.00;;;3.53;;
3131;SDS011;62090;52.330;9.104;2024-03-23T10:28:12;23.83;;;4.93;;
3131;SDS011;62090;52.330;9.104;2024-03-23T10:30:38;15.70;;;3.50;;
3131;SDS011;62090;52.330;9.104;2024-03-23T10:33:08;19.97;;;2.97;;
3131;SDS011;62090;52.330;9.104;2024-03-23T10:35:36;15.23;;;3.50;;
3131;SDS011;62090;52.330;9.104;2024-03-23T10:38:04;15.77;;;3.07;;
3131;SDS011;62090;52.330;9.104;2024-03-23T10:40:34;8.83;;;2.47;;
3131;SDS011;62090;52.330;9.104;2024-03-23T10:43:01;11.70;;;2.60;;
3131;SDS011;62090;52.330;9.104;2024-03-23T10:45:29;12.93;;;3.60;;
3131;SDS011;62090;52.330;9.104;2024-03-23T10:47:55;14.43;;;3.20;;
3131;SDS011;62090;52.330;9.104;2024-03-23T10:50:22;7.20;;;2.40;;
3131;SDS011;62090;52.330;9.104;2024-03-23T10:52:48;11.53;;;3.00;;
3131;SDS011;62090;52.330;9.104;2024-03-23T10:55:15;10.13;;;2.70;;
3131;SDS011;62090;52.330;9.104;2024-03-23T10:57:48;11.53;;;2.23;;
3131;SDS011;62090;52.330;9.104;2024-03-23T11:00:17;9.20;;;2.63;;
3131;SDS011;62090;52.330;9.104;2024-03-23T11:02:44;9.53;;;2.20;;
3131;SDS011;62090;52.330;9.104;2024-03-23T11:07:55;8.60;;;2.23;;
3131;SDS011;62090;52.330;9.104;2024-03-23T11:10:25;9.10;;;1.83;;
3131;SDS011;62090;52.330;9.104;2024-03-23T11:12:55;6.33;;;1.90;;
3131;SDS011;62090;52.330;9.104;2024-03-23T11:15:21;6.67;;;2.17;;
3131;SDS011;62090;52.330;9.104;2024-03-23T11:20:34;7.67;;;1.87;;
3131;SDS011;62090;52.330;9.104;2024-03-23T11:23:01;7.20;;;1.80;;
3131;SDS011;62090;52.330;9.104;2024-03-23T11:25:28;7.37;;;1.73;;
3131;SDS011;62090;52.330;9.104;2024-03-23T11:27:58;12.17;;;2.10;;
3131;SDS011;62090;52.330;9.104;2024-03-23T11:30:36;8.10;;;2.03;;
3131;SDS011;62090;52.330;9.104;2024-03-23T11:33:02;8.00;;;1.90;;
3131;SDS011;62090;52.330;9.104;2024-03-23T11:35:29;8.67;;;1.70;;
3131;SDS011;62090;52.330;9.104;2024-03-23T11:38:03;11.40;;;2.53;;
3131;SDS011;62090;52.330;9.104;2024-03-23T11:40:33;12.63;;;2.47;;
3131;SDS011;62090;52.330;9.104;2024-03-23T11:43:03;6.20;;;2.63;;
3131;SDS011;62090;52.330;9.104;2024-03-23T11:45:33;11.80;;;2.80;;
3131;SDS011;62090;52.330;9.104;2024-03-23T11:48:01;7.27;;;2.40;;
3131;SDS011;62090;52.330;9.104;2024-03-23T11:50:31;10.37;;;2.43;;
3131;SDS011;62090;52.330;9.104;2024-03-23T11:55:49;11.50;;;4.30;;
3131;SDS011;62090;52.330;9.104;2024-03-23T11:58:20;5.50;;;2.17;;
3131;SDS011;62090;52.330;9.104;2024-03-23T12:00:50;7.80;;;2.57;;
3131;SDS011;62090;52.330;9.104;2024-03-23T12:03:17;5.23;;;1.83;;
3131;SDS011;62090;52.330;9.104;2024-03-23T12:05:47;12.43;;;4.00;;
3131;SDS011;62090;52.330;9.104;2024-03-23T12:08:15;7.17;;;2.27;;
3131;SDS011;62090;52.330;9.104;2024-03-23T12:10:43;10.70;;;2.30;;
3131;SDS011;62090;52.330;9.104;2024-03-23T12:13:10;12.17;;;1.90;;
3131;SDS011;62090;52.330;9.104;2024-03-23T12:15:39;5.43;;;2.13;;
3131;SDS011;62090;52.330;9.104;2024-03-23T12:18:06;6.77;;;2.27;;
3131;SDS011;62090;52.330;9.104;2024-03-23T12:20:33;9.97;;;2.93;;
3131;SDS011;62090;52.330;9.104;2024-03-23T12:23:04;7.30;;;2.60;;
3131;SDS011;62090;52.330;9.104;2024-03-23T12:25:31;6.47;;;2.07;;
3131;SDS011;62090;52.330;9.104;2024-03-23T12:27:58;6.63;;;2.07;;
3131;SDS011;62090;52.330;9.104;2024-03-23T12:30:25;11.67;;;2.47;;
3131;SDS011;62090;52.330;9.104;2024-03-23T12:32:53;9.63;;;2.33;;
3131;SDS011;62090;52.330;9.104;2024-03-23T12:35:20;7.57;;;2.20;;
3131;SDS011;62090;52.330;9.104;2024-03-23T12:37:46;6.50;;;1.87;;
3131;SDS011;62090;52.330;9.104;2024-03-23T12:40:12;10.17;;;2.00;;
3131;SDS011;62090;52.330;9.104;2024-03-23T12:42:39;6.87;;;1.80;;
3131;SDS011;62090;52.330;9.104;2024-03-23T12:45:05;3.97;;;1.80;;
3131;SDS011;62090;52.330;9.104;2024-03-23T12:47:32;8.53;;;1.30;;
3131;SDS011;62090;52.330;9.104;2024-03-23T12:50:01;3.87;;;1.30;;
3131;SDS011;62090;52.330;9.104;2024-03-23T12:52:28;3.07;;;1.07;;
3131;SDS011;62090;52.330;9.104;2024-03-23T12:54:55;4.20;;;1.30;;
3131;SDS011;62090;52.330;9.104;2024-03-23T12:57:22;4.47;;;1.40;;
3131;SDS011;62090;52.330;9.104;2024-03-23T12:59:49;3.70;;;1.80;;
3131;SDS011;62090;52.330;9.104;2024-03-23T13:02:17;2.60;;;1.30;;
3131;SDS011;62090;52.330;9.104;2024-03-23T13:04:44;3.43;;;1.10;;
3131;SDS011;62090;52.330;9.104;2024-03-23T13:07:14;1.57;;;0.93;;
3131;SDS011;62090;52.330;9.104;2024-03-23T13:09:40;4.97;;;1.10;;
3131;SDS011;62090;52.330;9.104;2024-03-23T13:12:07;5.23;;;1.27;;
3131;SDS011;62090;52.330;9.104;2024-03-23T13:14:33;3.90;;;1.37;;
3131;SDS011;62090;52.330;9.104;2024-03-23T13:17:00;3.20;;;1.53;;
3131;SDS011;62090;52.330;9.104;2024-03-23T13:19:26;4.07;;;1.50;;
3131;SDS011;62090;52.330;9.104;2024-03-23T13:21:53;5.50;;;1.43;;
3131;SDS011;62090;52.330;9.104;2024-03-23T13:24:23;8.67;;;1.20;;
3131;SDS011;62090;52.330;9.104;2024-03-23T13:26:50;3.30;;;1.27;;
3131;SDS011;62090;52.330;9.104;2024-03-23T13:29:16;4.40;;;1.47;;
3131;SDS011;62090;52.330;9.104;2024-03-23T13:31:43;5.33;;;1.23;;
3131;SDS011;62090;52.330;9.104;2024-03-23T13:34:09;6.83;;;1.63;;
3131;SDS011;62090;52.330;9.104;2024-03-23T13:36:35;6.60;;;1.40;;
3131;SDS011;62090;52.330;9.104;2024-03-23T13:39:02;10.70;;;1.43;;
3131;SDS011;62090;52.330;9.104;2024-03-23T13:41:31;4.97;;;1.80;;
3131;SDS011;62090;52.330;9.104;2024-03-23T13:43:57;9.03;;;2.07;;
3131;SDS011;62090;52.330;9.104;2024-03-23T13:46:24;4.60;;;1.40;;
3131;SDS011;62090;52.330;9.104;2024-03-23T13:48:50;9.13;;;1.60;;
3131;SDS011;62090;52.330;9.104;2024-03-23T13:51:22;5.30;;;1.63;;
3131;SDS011;62090;52.330;9.104;2024-03-23T13:53:50;2.27;;;1.47;;
3131;SDS011;62090;52.330;9.104;2024-03-23T13:56:16;12.07;;;1.27;;
3131;SDS011;62090;52.330;9.104;2024-03-23T13:58:45;2.70;;;0.83;;
3131;SDS011;62090;52.330;9.104;2024-03-23T14:01:12;1.93;;;0.90;;
3131;SDS011;62090;52.330;9.104;2024-03-23T14:03:38;3.90;;;0.80;;
3131;SDS011;62090;52.330;9.104;2024-03-23T14:06:05;0.97;;;0.60;;
3131;SDS011;62090;52.330;9.104;2024-03-23T14:08:32;1.27;;;0.70;;
3131;SDS011;62090;52.330;9.104;2024-03-23T14:10:58;3.60;;;1.00;;
3131;SDS011;62090;52.330;9.104;2024-03-23T14:13:24;2.20;;;0.73;;
3131;SDS011;62090;52.330;9.104;2024-03-23T14:15:55;1.47;;;0.70;;
3131;SDS011;62090;52.330;9.104;2024-03-23T14:18:21;1.17;;;0.70;;
3131;SDS011;62090;52.330;9.104;2024-03-23T14:20:48;1.00;;;0.70;;
3131;SDS011;62090;52.330;9.104;2024-03-23T14:23:14;5.70;;;0.73;;
3131;SDS011;62090;52.330;9.104;2024-03-23T14:25:40;1.77;;;0.60;;
3131;SDS011;62090;52.330;9.104;2024-03-23T14:28:07;1.30;;;0.70;;
3131;SDS011;62090;52.330;9.104;2024-03-23T14:30:33;2.53;;;0.73;;
3131;SDS011;62090;52.330;9.104;2024-03-23T14:33:02;3.10;;;1.20;;
3131;SDS011;62090;52.330;9.104;2024-03-23T14:35:29;3.53;;;1.07;;
3131;SDS011;62090;52.330;9.104;2024-03-23T14:37:55;3.00;;;1.20;;
3131;SDS011;62090;52.330;9.104;2024-03-23T14:40:21;6.23;;;1.73;;
3131;SDS011;62090;52.330;9.104;2024-03-23T14:42:47;5.03;;;1.30;;
3131;SDS011;62090;52.330;9.104;2024-03-23T14:45:14;5.17;;;1.40;;
3131;SDS011;62090;52.330;9.104;2024-03-23T14:47:40;2.80;;;1.43;;
3131;SDS011;62090;52.330;9.104;2024-03-23T14:50:10;6.50;;;1.40;;
3131;SDS011;62090;52.330;9.104;2024-03-23T14:52:36;5.83;;;1.60;;
3131;SDS011;62090;52.330;9.104;2024-03-23T14:55:03;5.23;;;2.00;;
3131;SDS011;62090;52.330;9.104;2024-03-23T14:57:30;5.77;;;2.17;;
3131;SDS011;62090;52.330;9.104;2024-03-23T14:59:56;4.50;;;1.77;;
3131;SDS011;62090;52.330;9.104;2024-03-23T15:02:22;6.57;;;1.30;;
3131;SDS011;62090;52.330;9.104;2024-03-23T15:04:49;5.50;;;1.30;;
3131;SDS011;62090;52.330;9.104;2024-03-23T15:07:18;3.37;;;1.47;;
3131;SDS011;62090;52.330;9.104;2024-03-23T15:09:44;2.60;;;1.30;;
3131;SDS011;62090;52.330;9.104;2024-03-23T15:12:10;2.57;;;0.90;;
3131;SDS011;62090;52.330;9.104;2024-03-23T15:14:36;4.10;;;1.03;;
3131;SDS011;62090;52.330;9.104;2024-03-23T15:17:03;5.70;;;1.13;;
3131;SDS011;62090;52.330;9.104;2024-03-23T15:19:30;9.27;;;1.60;;
3131;SDS011;62090;52.330;9.104;2024-03-23T15:21:56;4.73;;;1.50;;
3131;SDS011;62090;52.330;9.104;2024-03-23T15:24:25;6.37;;;1.67;;
3131;SDS011;62090;52.330;9.104;2024-03-23T15:26:51;3.73;;;1.07;;
3131;SDS011;62090;52.330;9.104;2024-03-23T15:29:17;8.93;;;2.23;;
3131;SDS011;62090;52.330;9.104;2024-03-23T15:31:44;5.43;;;1.40;;
3131;SDS011;62090;52.330;9.104;2024-03-23T15:34:10;4.07;;;1.13;;
3131;SDS011;62090;52.330;9.104;2024-03-23T15:36:36;5.70;;;1.40;;
3131;SDS011;62090;52.330;9.104;2024-03-23T15:39:03;6.10;;;1.10;;
3131;SDS011;62090;52.330;9.104;2024-03-23T15:41:32;4.20;;;1.13;;
3131;SDS011;62090;52.330;9.104;2024-03-23T15:43:59;6.70;;;1.80;;
3131;SDS011;62090;52.330;9.104;2024-03-23T15:46:25;10.50;;;1.30;;
3131;SDS011;62090;52.330;9.104;2024-03-23T15:48:51;9.23;;;1.40;;